createdAt,value
2022-10-09T00:01:26.456Z,3.60
2022-10-09T00:06:34.961Z,3.70
2022-10-09T00:11:37.673Z,3.70
2022-10-09T00:16:40.391Z,3.10
2022-10-09T00:21:43.136Z,3.00
2022-10-09T00:26:48.705Z,2.90
2022-10-09T00:31:51.419Z,2.60
2022-10-09T00:36:54.112Z,3.00
2022-10-09T00:41:56.905Z,2.90
2022-10-09T00:46:59.693Z,2.60
2022-10-09T00:52:07.306Z,2.60
2022-10-09T00:57:10.912Z,2.50
2022-10-09T01:02:13.762Z,2.80
2022-10-09T01:07:22.767Z,2.40
2022-10-09T01:12:31.716Z,2.70
2022-10-09T01:17:49.503Z,3.00
2022-10-09T01:23:31.105Z,2.80
2022-10-09T01:28:36.238Z,2.50
2022-10-09T01:33:40.297Z,2.50
2022-10-09T01:38:44.555Z,2.70
2022-10-09T01:43:47.262Z,2.80
2022-10-09T01:49:24.035Z,2.80
2022-10-09T01:54:57.211Z,2.80
2022-10-09T02:00:04.468Z,2.80
2022-10-09T02:05:10.235Z,3.00
2022-10-09T02:10:15.914Z,3.00
2022-10-09T02:15:20.442Z,3.40
2022-10-09T02:20:32.707Z,2.60
2022-10-09T02:25:36.087Z,3.20
2022-10-09T02:30:50.901Z,2.80
2022-10-09T02:35:53.906Z,3.40
2022-10-09T02:40:59.202Z,3.80
2022-10-09T02:46:01.986Z,3.20
2022-10-09T02:51:05.126Z,3.10
2022-10-09T02:56:07.877Z,2.90
2022-10-09T03:01:10.613Z,2.80
2022-10-09T03:06:16.617Z,2.90
2022-10-09T03:11:22.084Z,2.80
2022-10-09T03:16:26.396Z,2.90
2022-10-09T03:21:29.442Z,2.90
2022-10-09T03:26:32.499Z,2.80
2022-10-09T03:31:52.787Z,3.00
2022-10-09T03:36:56.238Z,2.60
2022-10-09T03:41:58.937Z,3.60
2022-10-09T03:47:01.726Z,2.60
2022-10-09T03:52:04.629Z,2.60
2022-10-09T03:57:07.321Z,2.60
2022-10-09T04:02:10.017Z,2.70
2022-10-09T04:07:12.770Z,2.90
2022-10-09T04:12:15.726Z,2.50
2022-10-09T04:17:18.413Z,2.90
2022-10-09T04:22:21.083Z,2.70
2022-10-09T04:27:23.779Z,3.90
2022-10-09T04:32:26.817Z,2.90
2022-10-09T04:37:29.486Z,3.40
2022-10-09T04:42:32.219Z,2.90
2022-10-09T04:47:35.479Z,2.70
2022-10-09T04:52:38.178Z,3.30
2022-10-09T04:57:40.919Z,2.80
2022-10-09T05:02:44.865Z,3.30
2022-10-09T05:07:47.638Z,3.10
2022-10-09T05:12:51.064Z,2.90
2022-10-09T05:17:54.259Z,3.10
2022-10-09T05:22:57.216Z,3.20
2022-10-09T05:28:00.852Z,2.70
2022-10-09T05:33:03.632Z,3.10
2022-10-09T05:38:06.361Z,4.20
2022-10-09T05:43:09.055Z,2.80
2022-10-09T05:48:11.985Z,3.10
2022-10-09T05:53:14.780Z,3.00
2022-10-09T05:58:17.481Z,2.60
2022-10-09T06:03:20.122Z,3.20
2022-10-09T06:08:22.798Z,2.60
2022-10-09T06:13:27.494Z,2.90
2022-10-09T06:18:30.206Z,3.70
2022-10-09T06:23:35.142Z,3.80
2022-10-09T06:28:37.976Z,3.20
2022-10-09T06:33:42.555Z,3.00
2022-10-09T06:38:45.366Z,3.20
2022-10-09T06:43:51.973Z,2.90
2022-10-09T06:48:55.087Z,2.60
2022-10-09T06:53:59.933Z,3.10
2022-10-09T06:59:05.076Z,3.20
2022-10-09T07:04:12.776Z,2.50
2022-10-09T07:09:16.489Z,3.00
2022-10-09T07:14:19.269Z,3.00
2022-10-09T07:19:22.052Z,2.80
2022-10-09T07:24:25.556Z,2.70
2022-10-09T07:29:28.261Z,2.50
2022-10-09T07:34:31.037Z,2.20
2022-10-09T07:39:35.581Z,2.40
2022-10-09T07:44:38.294Z,2.50
2022-10-09T07:49:41.006Z,2.90
2022-10-09T07:54:43.732Z,2.30
2022-10-09T07:59:46.556Z,2.50
2022-10-09T08:04:49.302Z,2.30
2022-10-09T08:09:52.440Z,2.20
2022-10-09T08:14:55.397Z,1.60
2022-10-09T08:19:58.671Z,1.90
2022-10-09T08:25:01.400Z,2.00
2022-10-09T08:30:04.581Z,2.50
2022-10-09T08:35:07.666Z,1.80
2022-10-09T08:40:18.938Z,1.90
2022-10-09T08:45:21.730Z,2.00
2022-10-09T08:50:35.914Z,1.60
2022-10-09T08:55:47.911Z,2.10
2022-10-09T09:00:59.994Z,2.30
2022-10-09T09:06:22.308Z,3.00
2022-10-09T09:11:46.910Z,1.80
2022-10-09T09:17:14.233Z,1.90
2022-10-09T09:22:17.260Z,2.00
2022-10-09T09:27:30.197Z,1.30
2022-10-09T09:32:33.847Z,2.30
2022-10-09T09:37:38.503Z,1.90
2022-10-09T09:42:43.103Z,2.00
2022-10-09T09:47:55.589Z,2.10
2022-10-09T09:53:02.864Z,1.80
2022-10-09T09:58:08.224Z,1.70
2022-10-09T10:03:17.949Z,1.40
2022-10-09T10:08:34.680Z,2.30
2022-10-09T10:13:46.029Z,1.60
2022-10-09T10:18:49.097Z,2.10
2022-10-09T10:24:03.867Z,2.10
2022-10-09T10:29:06.566Z,2.60
2022-10-09T10:34:18.746Z,2.60
2022-10-09T10:39:36.110Z,1.60
2022-10-09T10:44:52.457Z,1.90
2022-10-09T10:49:56.034Z,1.80
2022-10-09T10:55:34.491Z,1.50
2022-10-09T11:00:41.225Z,1.80
2022-10-09T11:05:52.602Z,1.50
2022-10-09T11:11:20.261Z,1.70
2022-10-09T11:16:35.568Z,1.50
2022-10-09T11:21:57.599Z,1.60
2022-10-09T11:27:26.339Z,1.40
2022-10-09T11:33:07.097Z,1.60
2022-10-09T11:38:31.913Z,2.20
2022-10-09T11:43:43.641Z,1.60
2022-10-09T11:49:09.277Z,3.00
2022-10-09T11:54:16.497Z,1.90
2022-10-09T11:59:42.153Z,1.50
2022-10-09T12:04:54.968Z,1.90
2022-10-09T12:10:21.185Z,1.90
2022-10-09T12:15:46.517Z,2.00
2022-10-09T12:20:50.811Z,2.20
2022-10-09T12:25:54.832Z,1.90
2022-10-09T12:31:05.038Z,1.70
2022-10-09T12:36:26.882Z,1.40
2022-10-09T12:41:34.792Z,1.30
2022-10-09T12:46:39.428Z,1.10
2022-10-09T12:51:53.845Z,1.30
2022-10-09T12:57:04.342Z,1.20
2022-10-09T13:02:18.810Z,1.90
2022-10-09T13:07:25.178Z,1.40
2022-10-09T13:17:42.112Z,1.60
2022-10-09T13:23:00.301Z,2.20
2022-10-09T13:28:04.848Z,2.30
2022-10-09T13:33:14.572Z,1.20
2022-10-09T13:38:20.423Z,1.30
2022-10-09T13:43:26.782Z,2.10
2022-10-09T13:48:31.421Z,1.10
2022-10-09T13:53:35.477Z,1.30
2022-10-09T13:58:38.381Z,1.30
2022-10-09T14:03:41.343Z,2.30
2022-10-09T14:08:46.338Z,1.40
2022-10-09T14:13:49.136Z,1.20
2022-10-09T14:19:02.382Z,1.20
2022-10-09T14:24:08.334Z,1.10
2022-10-09T14:29:11.290Z,1.20
2022-10-09T14:34:15.401Z,1.80
2022-10-09T14:39:18.251Z,1.20
2022-10-09T14:44:21.359Z,1.30
2022-10-09T14:49:24.258Z,1.10
2022-10-09T14:54:30.508Z,1.30
2022-10-09T14:59:34.460Z,1.90
2022-10-09T15:04:37.203Z,1.50
2022-10-09T15:09:39.918Z,1.30
2022-10-09T15:14:42.692Z,1.70
2022-10-09T15:19:45.375Z,2.10
2022-10-09T15:24:48.283Z,2.60
2022-10-09T15:29:51.036Z,2.30
2022-10-09T15:34:53.720Z,1.80
2022-10-09T15:39:56.433Z,2.70
2022-10-09T15:44:59.128Z,2.50
2022-10-09T15:50:01.998Z,1.80
2022-10-09T15:55:05.699Z,1.80
2022-10-09T16:00:09.969Z,1.50
2022-10-09T16:05:12.659Z,1.90
2022-10-09T16:10:15.369Z,1.80
2022-10-09T16:15:18.285Z,2.10
2022-10-09T16:20:21.003Z,2.70
2022-10-09T16:25:23.713Z,3.50
2022-10-09T16:30:27.660Z,3.30
2022-10-09T16:35:30.437Z,3.70
2022-10-09T16:40:57.483Z,4.00
2022-10-09T16:45:56.551Z,5.40
2022-10-09T16:50:59.352Z,7.10
2022-10-09T16:56:11.518Z,7.70
2022-10-09T17:01:15.672Z,6.30
2022-10-09T17:06:23.871Z,6.70
2022-10-09T17:11:29.922Z,5.00
2022-10-09T17:16:36.002Z,4.50
2022-10-09T17:21:38.903Z,3.90
2022-10-09T17:26:42.050Z,5.50
2022-10-09T17:31:44.794Z,5.90
2022-10-09T17:36:47.843Z,5.10
2022-10-09T17:41:50.767Z,4.70
2022-10-09T17:46:54.160Z,4.00
2022-10-09T17:51:56.976Z,3.70
2022-10-09T17:57:02.274Z,3.40
2022-10-09T18:02:05.836Z,3.70
2022-10-09T18:07:10.852Z,4.20
2022-10-09T18:12:13.567Z,4.40
2022-10-09T18:17:16.301Z,4.20
2022-10-09T18:22:18.973Z,4.10
2022-10-09T18:27:24.010Z,4.00
2022-10-09T18:32:26.839Z,4.60
2022-10-09T18:37:29.633Z,4.10
2022-10-09T18:42:32.455Z,3.90
2022-10-09T18:47:36.382Z,5.40
2022-10-09T18:52:41.990Z,4.80
2022-10-09T18:57:47.956Z,5.50
2022-10-09T19:02:50.734Z,5.20
2022-10-09T19:07:53.423Z,5.40
2022-10-09T19:12:56.230Z,5.20
2022-10-09T19:17:58.971Z,6.40
2022-10-09T19:23:01.762Z,6.00
2022-10-09T19:28:04.448Z,6.50
2022-10-09T19:33:07.415Z,5.60
2022-10-09T19:38:10.076Z,6.00
2022-10-09T19:43:14.022Z,6.50
2022-10-09T19:48:18.308Z,6.80
2022-10-09T19:53:21.043Z,6.10
2022-10-09T19:58:23.818Z,6.80
2022-10-09T20:03:26.531Z,7.10
2022-10-09T20:08:29.615Z,6.50
2022-10-09T20:13:45.038Z,7.00
2022-10-09T20:18:47.840Z,7.10
2022-10-09T20:23:51.703Z,7.90
2022-10-09T20:28:54.696Z,9.40
2022-10-09T20:33:58.853Z,8.80
2022-10-09T20:39:05.273Z,7.20
2022-10-09T20:44:08.470Z,6.90
2022-10-09T20:49:13.021Z,7.10
2022-10-09T20:54:18.068Z,6.80
2022-10-09T20:59:20.893Z,6.30
2022-10-09T21:04:23.676Z,6.30
2022-10-09T21:09:29.666Z,6.50
2022-10-09T21:14:33.791Z,7.20
2022-10-09T21:19:36.470Z,6.50
2022-10-09T21:24:39.183Z,7.00
2022-10-09T21:29:41.976Z,8.10
2022-10-09T21:34:45.345Z,10.60
2022-10-09T21:39:48.098Z,13.30
2022-10-09T21:44:50.773Z,12.80
2022-10-09T21:49:53.605Z,13.60
2022-10-09T21:54:56.353Z,11.30
2022-10-09T21:59:59.018Z,9.40
2022-10-09T22:05:01.770Z,9.50
2022-10-09T22:10:06.625Z,8.00
2022-10-09T22:15:09.746Z,8.90
2022-10-09T22:20:13.310Z,8.60
2022-10-09T22:25:16.233Z,7.80
2022-10-09T22:30:18.912Z,7.20
2022-10-09T22:35:22.072Z,7.70
2022-10-09T22:40:24.826Z,7.20
2022-10-09T22:45:27.457Z,8.70
2022-10-09T22:50:30.363Z,8.20
2022-10-09T22:55:33.033Z,7.40
2022-10-09T23:00:37.082Z,13.80
2022-10-09T23:05:39.997Z,21.40
2022-10-09T23:10:42.767Z,19.00
2022-10-09T23:15:45.517Z,9.10
2022-10-09T23:20:48.502Z,9.90
2022-10-09T23:25:51.193Z,35.40
2022-10-09T23:30:53.871Z,13.40
2022-10-09T23:35:56.677Z,7.60
2022-10-09T23:41:01.952Z,7.50
2022-10-09T23:46:06.085Z,6.50
2022-10-09T23:51:09.741Z,5.60
2022-10-09T23:56:18.530Z,16.00
